• NOTAM LFQA

     05/12 07:30Z - 19/12/22 04:30Z
    LACHER DE BALLONS LIBRES NON HABITES CATEGORIE MOYEN A REIMS : RDL : 300/04NM ARP LFQA PSN : 491432N 0040403E ACTIVITE REELLE CONNUE DE : PRUNAY INFO 134.930MHZ SEINE INFO 120.325MHZ PARIS INFO 125.700MHZ

     01/12 08:29Z - 31/12/22 11:59Z
    DISTANCES DECLAREES MODIFIEES PISTE 25 REVETUE : TORA=995M TODA=1055M ASDA=1090M LDA=765M FIN DE TORA : 155M AVANT EXTREMITE PHYSIQUE DE LA PISTE FIN DE TODA : 95M AVANT EXTREMITE PHYSIQUE DE LA PISTE FIN DE LDA : 60M AVANT EXTREMITE PHYSIQUE DE LA PISTE MODIFICATION CAUSE PRESENCE OBSTACLES CONSTITUES PAR LES ROUTES D944 ET D931

     01/12 08:28Z - 31/12/22 11:59Z
    DISTANCES DECLAREES PISTE 07 REVETUE: TORA 905M TODA 965M ASDA 1090M LDA 895M FIN DE TORA 245M AVANT EXTREMITE PHYSIQUE DE PISTE FIN DE TODA 185M AVANT EXTREMITE PHYSIQUE DE PISTE FIN DE LDA 60M AVANT EXTREMITE PHYSIQUE DE PISTE CAUSE OBSTACLES CONSTITUES PAR LES ROUTES D944 ET D931











  • PHOTOS SATELLITE

CARTE TEMSI

CARTE WINTEM

  • Vent au sol

  • Vent à 2000ft

  • ANIMATION RADAR

  • METAR/TAF LFQA (REIMS / Prunay)

    LFQA 072030Z AUTO 26004KT 8000 BKN010 OVC019 04/03 Q1016

    METAR/TAF LFOK (CHALONS / Vatry)

    LFOK 072030Z AUTO 25005KT 6000 BKN004 BKN010 OVC024 03/03 Q1016 TEMPO 2000 BR

    TAF LFOK 071700Z 0718/0818 26005KT 7000 BKN007 BKN035 PROB40 TEMPO 0718/0724 2000 BR BKN003 BKN030 BECMG 0800/0802 0500 FG VV/// PROB40 TEMPO 0805/0810 FZFG BECMG 0810/0813 4000 BR BKN005 BECMG 0813/0815 7000 NSW SCT010 BKN020

RESERVATION